sensor_id;sensor_type;location;lat;lon;timestamp;pressure;altitude;pressure_sealevel;temperature;humidity
21779;BME280;11050;52.222;20.916;2024-02-23T00:00:43;98138.84;;;9.90;95.24
21779;BME280;11050;52.222;20.916;2024-02-23T00:03:09;98137.41;;;9.92;95.77
21779;BME280;11050;52.222;20.916;2024-02-23T00:05:36;98135.16;;;9.94;95.71
21779;BME280;11050;52.222;20.916;2024-02-23T00:08:02;98133.34;;;9.90;95.73
21779;BME280;11050;52.222;20.916;2024-02-23T00:10:28;98133.84;;;9.92;95.82
21779;BME280;11050;52.222;20.916;2024-02-23T00:12:54;98122.59;;;9.93;95.69
21779;BME280;11050;52.222;20.916;2024-02-23T00:15:19;98132.13;;;9.96;95.26
21779;BME280;11050;52.222;20.916;2024-02-23T00:17:45;98122.06;;;9.91;95.98
21779;BME280;11050;52.222;20.916;2024-02-23T00:20:11;98133.03;;;9.91;95.89
21779;BME280;11050;52.222;20.916;2024-02-23T00:22:37;98133.56;;;9.93;96.08
21779;BME280;11050;52.222;20.916;2024-02-23T00:25:04;98127.75;;;9.95;95.94
21779;BME280;11050;52.222;20.916;2024-02-23T00:27:31;98127.25;;;9.93;95.88
21779;BME280;11050;52.222;20.916;2024-02-23T00:29:57;98126.13;;;9.94;95.84
21779;BME280;11050;52.222;20.916;2024-02-23T00:32:22;98134.97;;;9.91;96.47
21779;BME280;11050;52.222;20.916;2024-02-23T00:34:48;98129.78;;;9.89;96.76
21779;BME280;11050;52.222;20.916;2024-02-23T00:37:14;98123.47;;;9.89;96.76
21779;BME280;11050;52.222;20.916;2024-02-23T00:39:40;98115.25;;;9.89;96.85
21779;BME280;11050;52.222;20.916;2024-02-23T00:42:06;98122.59;;;9.93;96.69
21779;BME280;11050;52.222;20.916;2024-02-23T00:44:33;98112.31;;;9.85;96.65
21779;BME280;11050;52.222;20.916;2024-02-23T00:46:59;98110.28;;;9.91;96.77
21779;BME280;11050;52.222;20.916;2024-02-23T00:49:28;98097.91;;;9.93;96.26
21779;BME280;11050;52.222;20.916;2024-02-23T00:51:55;98106.63;;;9.95;95.96
21779;BME280;11050;52.222;20.916;2024-02-23T00:54:21;98112.31;;;9.99;95.93
21779;BME280;11050;52.222;20.916;2024-02-23T00:56:47;98100.53;;;9.98;96.48
21779;BME280;11050;52.222;20.916;2024-02-23T00:59:12;98084.59;;;10.00;96.41
21779;BME280;11050;52.222;20.916;2024-02-23T01:01:38;98093.00;;;10.04;95.91
21779;BME280;11050;52.222;20.916;2024-02-23T01:04:04;98089.25;;;10.00;96.24
21779;BME280;11050;52.222;20.916;2024-02-23T01:06:30;98082.66;;;10.01;96.34
21779;BME280;11050;52.222;20.916;2024-02-23T01:08:56;98090.28;;;10.04;95.94
21779;BME280;11050;52.222;20.916;2024-02-23T01:11:22;98076.25;;;10.05;95.82
21779;BME280;11050;52.222;20.916;2024-02-23T01:13:47;98084.28;;;10.02;95.98
21779;BME280;11050;52.222;20.916;2024-02-23T01:16:13;98078.59;;;9.98;96.67
21779;BME280;11050;52.222;20.916;2024-02-23T01:18:39;98074.72;;;9.99;96.68
21779;BME280;11050;52.222;20.916;2024-02-23T01:21:05;98071.16;;;9.99;96.91
21779;BME280;11050;52.222;20.916;2024-02-23T01:23:31;98071.16;;;9.99;96.81
21779;BME280;11050;52.222;20.916;2024-02-23T01:25:56;98074.50;;;9.96;96.75
21779;BME280;11050;52.222;20.916;2024-02-23T01:28:24;98085.78;;;9.94;97.14
21779;BME280;11050;52.222;20.916;2024-02-23T01:30:50;98068.00;;;9.92;97.14
21779;BME280;11050;52.222;20.916;2024-02-23T01:33:16;98072.59;;;9.96;97.49
21779;BME280;11050;52.222;20.916;2024-02-23T01:35:41;98075.53;;;10.00;97.38
21779;BME280;11050;52.222;20.916;2024-02-23T01:38:07;98078.66;;;10.07;96.38
21779;BME280;11050;52.222;20.916;2024-02-23T01:40:33;98086.50;;;10.00;97.27
21779;BME280;11050;52.222;20.916;2024-02-23T01:43:04;98063.63;;;9.91;97.85
21779;BME280;11050;52.222;20.916;2024-02-23T01:45:31;98079.41;;;9.99;98.15
21779;BME280;11050;52.222;20.916;2024-02-23T01:48:01;98073.50;;;10.05;97.29
21779;BME280;11050;52.222;20.916;2024-02-23T01:50:28;98068.22;;;10.09;96.94
21779;BME280;11050;52.222;20.916;2024-02-23T01:53:00;98079.19;;;10.09;97.32
21779;BME280;11050;52.222;20.916;2024-02-23T01:55:26;98086.03;;;10.11;96.91
21779;BME280;11050;52.222;20.916;2024-02-23T01:57:53;98070.47;;;10.20;97.05
21779;BME280;11050;52.222;20.916;2024-02-23T02:00:20;98081.75;;;10.19;96.97
21779;BME280;11050;52.222;20.916;2024-02-23T02:02:48;98059.94;;;10.14;97.00
21779;BME280;11050;52.222;20.916;2024-02-23T02:05:14;98063.47;;;10.14;97.53
21779;BME280;11050;52.222;20.916;2024-02-23T02:07:41;98061.84;;;10.13;97.69
21779;BME280;11050;52.222;20.916;2024-02-23T02:10:09;98061.03;;;10.13;97.90
21779;BME280;11050;52.222;20.916;2024-02-23T02:12:35;98058.28;;;10.13;97.75
21779;BME280;11050;52.222;20.916;2024-02-23T02:15:02;98062.16;;;10.12;97.52
21779;BME280;11050;52.222;20.916;2024-02-23T02:17:28;98057.22;;;10.09;98.15
21779;BME280;11050;52.222;20.916;2024-02-23T02:19:55;98054.81;;;10.07;98.98
21779;BME280;11050;52.222;20.916;2024-02-23T02:22:21;98046.00;;;10.10;98.81
21779;BME280;11050;52.222;20.916;2024-02-23T02:24:46;98059.94;;;10.14;98.62
21779;BME280;11050;52.222;20.916;2024-02-23T02:27:14;98055.53;;;10.13;98.51
21779;BME280;11050;52.222;20.916;2024-02-23T02:29:40;98051.75;;;10.09;98.85
21779;BME280;11050;52.222;20.916;2024-02-23T02:32:06;98052.88;;;10.08;99.13
21779;BME280;11050;52.222;20.916;2024-02-23T02:34:32;98049.00;;;10.09;98.98
21779;BME280;11050;52.222;20.916;2024-02-23T02:37:00;98048.75;;;10.10;99.00
21779;BME280;11050;52.222;20.916;2024-02-23T02:39:26;98049.13;;;10.04;99.36
21779;BME280;11050;52.222;20.916;2024-02-23T02:41:52;98043.63;;;10.04;100.00
21779;BME280;11050;52.222;20.916;2024-02-23T02:44:18;98039.34;;;9.98;100.00
21779;BME280;11050;52.222;20.916;2024-02-23T02:46:43;98045.06;;;9.88;100.00
21779;BME280;11050;52.222;20.916;2024-02-23T02:49:11;98045.97;;;9.97;100.00
21779;BME280;11050;52.222;20.916;2024-02-23T02:51:37;98048.28;;;10.03;100.00
21779;BME280;11050;52.222;20.916;2024-02-23T02:54:03;98048.00;;;10.05;100.00
21779;BME280;11050;52.222;20.916;2024-02-23T02:56:29;98045.66;;;9.98;100.00
21779;BME280;11050;52.222;20.916;2024-02-23T02:58:55;98052.16;;;10.02;100.00
21779;BME280;11050;52.222;20.916;2024-02-23T03:01:21;98055.63;;;10.08;100.00
21779;BME280;11050;52.222;20.916;2024-02-23T03:03:47;98051.50;;;10.10;100.00
21779;BME280;11050;52.222;20.916;2024-02-23T03:06:13;98061.34;;;10.11;100.00
21779;BME280;11050;52.222;20.916;2024-02-23T03:08:42;98054.25;;;10.10;100.00
21779;BME280;11050;52.222;20.916;2024-02-23T03:11:08;98051.53;;;10.05;100.00
21779;BME280;11050;52.222;20.916;2024-02-23T03:13:33;98051.19;;;10.12;100.00
21779;BME280;11050;52.222;20.916;2024-02-23T03:15:59;98053.97;;;10.07;100.00
21779;BME280;11050;52.222;20.916;2024-02-23T03:18:25;98060.72;;;10.01;100.00
21779;BME280;11050;52.222;20.916;2024-02-23T03:23:28;98060.81;;;9.82;100.00
21779;BME280;11050;52.222;20.916;2024-02-23T03:25:54;98072.16;;;9.76;100.00
21779;BME280;11050;52.222;20.916;2024-02-23T03:28:20;98073.16;;;9.66;100.00
21779;BME280;11050;52.222;20.916;2024-02-23T03:30:45;98078.34;;;9.68;100.00
21779;BME280;11050;52.222;20.916;2024-02-23T03:33:11;98066.13;;;9.60;100.00
21779;BME280;11050;52.222;20.916;2024-02-23T03:35:37;98074.66;;;9.58;100.00
21779;BME280;11050;52.222;20.916;2024-02-23T03:38:03;98074.06;;;9.62;100.00
21779;BME280;11050;52.222;20.916;2024-02-23T03:40:28;98073.56;;;9.60;100.00
21779;BME280;11050;52.222;20.916;2024-02-23T03:42:54;98071.94;;;9.58;100.00
21779;BME280;11050;52.222;20.916;2024-02-23T03:45:20;98080.78;;;9.55;100.00
21779;BME280;11050;52.222;20.916;2024-02-23T03:47:46;98071.59;;;9.46;100.00
21779;BME280;11050;52.222;20.916;2024-02-23T03:50:12;98090.78;;;9.46;100.00
21779;BME280;11050;52.222;20.916;2024-02-23T03:52:38;98086.53;;;9.40;100.00
21779;BME280;11050;52.222;20.916;2024-02-23T03:55:04;98096.97;;;9.38;100.00
21779;BME280;11050;52.222;20.916;2024-02-23T03:57:31;98094.28;;;9.33;100.00
21779;BME280;11050;52.222;20.916;2024-02-23T03:59:57;98085.78;;;9.35;100.00
21779;BME280;11050;52.222;20.916;2024-02-23T04:02:23;98086.59;;;9.35;100.00
21779;BME280;11050;52.222;20.916;2024-02-23T04:04:48;98107.47;;;9.31;100.00
21779;BME280;11050;52.222;20.916;2024-02-23T04:07:14;98098.47;;;9.31;100.00
21779;BME280;11050;52.222;20.916;2024-02-23T04:09:41;98098.16;;;9.32;100.00
21779;BME280;11050;52.222;20.916;2024-02-23T04:12:06;98103.63;;;9.32;100.00
21779;BME280;11050;52.222;20.916;2024-02-23T04:14:35;98104.53;;;9.28;100.00
21779;BME280;11050;52.222;20.916;2024-02-23T04:17:05;98108.09;;;9.28;100.00
21779;BME280;11050;52.222;20.916;2024-02-23T04:19:30;98121.78;;;9.28;100.00
21779;BME280;11050;52.222;20.916;2024-02-23T04:21:56;98117.44;;;9.27;100.00
21779;BME280;11050;52.222;20.916;2024-02-23T04:24:22;98110.63;;;9.25;100.00
21779;BME280;11050;52.222;20.916;2024-02-23T04:26:47;98116.25;;;9.15;100.00
21779;BME280;11050;52.222;20.916;2024-02-23T04:29:13;98118.69;;;9.16;100.00
21779;BME280;11050;52.222;20.916;2024-02-23T04:31:39;98115.94;;;9.16;100.00
21779;BME280;11050;52.222;20.916;2024-02-23T04:34:04;98117.38;;;9.14;100.00
21779;BME280;11050;52.222;20.916;2024-02-23T04:36:30;98119.59;;;9.12;100.00
21779;BME280;11050;52.222;20.916;2024-02-23T04:38:56;98111.91;;;9.14;100.00
21779;BME280;11050;52.222;20.916;2024-02-23T04:41:22;98122.25;;;9.17;100.00
21779;BME280;11050;52.222;20.916;2024-02-23T04:43:48;98121.50;;;9.11;100.00
21779;BME280;11050;52.222;20.916;2024-02-23T04:46:13;98129.38;;;9.18;100.00
21779;BME280;11050;52.222;20.916;2024-02-23T04:48:39;98120.84;;;9.19;100.00
21779;BME280;11050;52.222;20.916;2024-02-23T04:51:05;98126.13;;;9.16;100.00
21779;BME280;11050;52.222;20.916;2024-02-23T04:53:32;98133.72;;;9.19;100.00
21779;BME280;11050;52.222;20.916;2024-02-23T04:56:01;98133.22;;;9.17;100.00
21779;BME280;11050;52.222;20.916;2024-02-23T04:58:27;98142.59;;;9.11;100.00
21779;BME280;11050;52.222;20.916;2024-02-23T05:00:52;98141.72;;;9.15;100.00
21779;BME280;11050;52.222;20.916;2024-02-23T05:03:18;98143.34;;;9.16;100.00
21779;BME280;11050;52.222;20.916;2024-02-23T05:05:44;98141.94;;;9.19;100.00
21779;BME280;11050;52.222;20.916;2024-02-23T05:08:09;98147.13;;;9.20;100.00
21779;BME280;11050;52.222;20.916;2024-02-23T05:10:35;98149.94;;;9.15;100.00
21779;BME280;11050;52.222;20.916;2024-02-23T05:13:01;98145.59;;;9.14;100.00
21779;BME280;11050;52.222;20.916;2024-02-23T05:15:26;98147.50;;;9.14;100.00
21779;BME280;11050;52.222;20.916;2024-02-23T05:17:52;98154.09;;;9.13;100.00
21779;BME280;11050;52.222;20.916;2024-02-23T05:20:18;98157.75;;;9.08;100.00
21779;BME280;11050;52.222;20.916;2024-02-23T05:22:44;98155.50;;;9.10;100.00
21779;BME280;11050;52.222;20.916;2024-02-23T05:25:09;98150.38;;;9.04;100.00
21779;BME280;11050;52.222;20.916;2024-02-23T05:27:35;98158.25;;;9.10;100.00
21779;BME280;11050;52.222;20.916;2024-02-23T05:30:01;98161.78;;;9.11;100.00
21779;BME280;11050;52.222;20.916;2024-02-23T05:32:27;98173.34;;;9.08;100.00
21779;BME280;11050;52.222;20.916;2024-02-23T05:34:53;98168.69;;;9.08;100.00
21779;BME280;11050;52.222;20.916;2024-02-23T05:37:19;98177.22;;;9.07;100.00
21779;BME280;11050;52.222;20.916;2024-02-23T05:39:46;98171.72;;;9.07;100.00
21779;BME280;11050;52.222;20.916;2024-02-23T05:42:12;98184.63;;;9.06;100.00
21779;BME280;11050;52.222;20.916;2024-02-23T05:44:38;98188.66;;;9.09;100.00
21779;BME280;11050;52.222;20.916;2024-02-23T05:47:05;98185.47;;;9.02;100.00
21779;BME280;11050;52.222;20.916;2024-02-23T05:49:31;98192.31;;;9.04;100.00
21779;BME280;11050;52.222;20.916;2024-02-23T05:51:56;98193.69;;;9.02;100.00
21779;BME280;11050;52.222;20.916;2024-02-23T05:54:22;98196.97;;;9.04;100.00
21779;BME280;11050;52.222;20.916;2024-02-23T05:56:48;98197.25;;;9.02;100.00
21779;BME280;11050;52.222;20.916;2024-02-23T05:59:15;98209.63;;;9.00;100.00
21779;BME280;11050;52.222;20.916;2024-02-23T06:01:41;98205.69;;;9.06;100.00
21779;BME280;11050;52.222;20.916;2024-02-23T06:04:06;98208.16;;;9.07;100.00
21779;BME280;11050;52.222;20.916;2024-02-23T06:06:32;98217.03;;;8.99;100.00
21779;BME280;11050;52.222;20.916;2024-02-23T06:08:58;98218.13;;;8.98;100.00
21779;BME280;11050;52.222;20.916;2024-02-23T06:11:23;98226.28;;;9.03;100.00
21779;BME280;11050;52.222;20.916;2024-02-23T06:13:49;98226.78;;;9.05;100.00
21779;BME280;11050;52.222;20.916;2024-02-23T06:16:15;98228.44;;;9.06;100.00
21779;BME280;11050;52.222;20.916;2024-02-23T06:18:41;98227.69;;;9.01;100.00
21779;BME280;11050;52.222;20.916;2024-02-23T06:21:17;98224.44;;;8.99;100.00
21779;BME280;11050;52.222;20.916;2024-02-23T06:23:44;98218.13;;;8.98;100.00
21779;BME280;11050;52.222;20.916;2024-02-23T06:26:10;98230.34;;;9.06;100.00
21779;BME280;11050;52.222;20.916;2024-02-23T06:28:37;98238.28;;;9.07;100.00
21779;BME280;11050;52.222;20.916;2024-02-23T06:31:08;98239.03;;;9.13;100.00
21779;BME280;11050;52.222;20.916;2024-02-23T06:33:34;98253.53;;;9.13;100.00
21779;BME280;11050;52.222;20.916;2024-02-23T06:36:00;98249.94;;;9.18;100.00
21779;BME280;11050;52.222;20.916;2024-02-23T06:38:27;98250.44;;;9.20;100.00
21779;BME280;11050;52.222;20.916;2024-02-23T06:40:52;98244.97;;;9.20;100.00
21779;BME280;11050;52.222;20.916;2024-02-23T06:43:19;98255.56;;;9.26;100.00
21779;BME280;11050;52.222;20.916;2024-02-23T06:45:44;98261.78;;;9.32;100.00
21779;BME280;11050;52.222;20.916;2024-02-23T06:48:10;98258.81;;;9.28;100.00
21779;BME280;11050;52.222;20.916;2024-02-23T06:50:36;98261.56;;;9.28;100.00
21779;BME280;11050;52.222;20.916;2024-02-23T06:53:02;98270.75;;;9.37;100.00
21779;BME280;11050;52.222;20.916;2024-02-23T06:55:28;98271.34;;;9.34;100.00
21779;BME280;11050;52.222;20.916;2024-02-23T06:57:54;98272.97;;;9.35;100.00
21779;BME280;11050;52.222;20.916;2024-02-23T07:00:21;98279.50;;;9.39;100.00
21779;BME280;11050;52.222;20.916;2024-02-23T07:02:47;98275.66;;;9.40;100.00
21779;BME280;11050;52.222;20.916;2024-02-23T07:05:13;98283.78;;;9.45;100.00
21779;BME280;11050;52.222;20.916;2024-02-23T07:07:40;98283.78;;;9.45;100.00
21779;BME280;11050;52.222;20.916;2024-02-23T07:10:08;98287.06;;;9.47;100.00
21779;BME280;11050;52.222;20.916;2024-02-23T07:12:34;98289.72;;;9.52;100.00
21779;BME280;11050;52.222;20.916;2024-02-23T07:14:59;98287.50;;;9.54;100.00
21779;BME280;11050;52.222;20.916;2024-02-23T07:17:25;98305.63;;;9.50;100.00
21779;BME280;11050;52.222;20.916;2024-02-23T07:19:51;98311.34;;;9.54;100.00
21779;BME280;11050;52.222;20.916;2024-02-23T07:22:18;98302.75;;;9.61;100.00
21779;BME280;11050;52.222;20.916;2024-02-23T07:24:44;98303.59;;;9.61;100.00
21779;BME280;11050;52.222;20.916;2024-02-23T07:27:10;98311.50;;;9.63;100.00
21779;BME280;11050;52.222;20.916;2024-02-23T07:29:36;98311.22;;;9.64;100.00
21779;BME280;11050;52.222;20.916;2024-02-23T07:32:02;98319.09;;;9.71;100.00
21779;BME280;11050;52.222;20.916;2024-02-23T07:34:30;98317.66;;;9.73;100.00
21779;BME280;11050;52.222;20.916;2024-02-23T07:36:57;98316.56;;;9.74;100.00
21779;BME280;11050;52.222;20.916;2024-02-23T07:39:22;98311.50;;;9.81;100.00
21779;BME280;11050;52.222;20.916;2024-02-23T07:41:48;98331.22;;;9.83;100.00
21779;BME280;11050;52.222;20.916;2024-02-23T07:44:14;98335.38;;;9.81;100.00
21779;BME280;11050;52.222;20.916;2024-02-23T07:46:40;98335.00;;;9.87;100.00
21779;BME280;11050;52.222;20.916;2024-02-23T07:49:07;98343.53;;;9.86;100.00
21779;BME280;11050;52.222;20.916;2024-02-23T07:51:33;98343.03;;;9.84;100.00
21779;BME280;11050;52.222;20.916;2024-02-23T07:53:58;98356.22;;;9.82;100.00
21779;BME280;11050;52.222;20.916;2024-02-23T07:56:24;98356.44;;;9.85;100.00
21779;BME280;11050;52.222;20.916;2024-02-23T07:58:50;98361.03;;;9.90;100.00
21779;BME280;11050;52.222;20.916;2024-02-23T08:01:15;98364.28;;;9.92;100.00
21779;BME280;11050;52.222;20.916;2024-02-23T08:03:41;98352.81;;;9.90;100.00
21779;BME280;11050;52.222;20.916;2024-02-23T08:06:07;98365.50;;;9.86;100.00
21779;BME280;11050;52.222;20.916;2024-02-23T08:08:33;98372.69;;;9.82;100.00
21779;BME280;11050;52.222;20.916;2024-02-23T08:11:02;98372.47;;;9.78;100.00
21779;BME280;11050;52.222;20.916;2024-02-23T08:13:28;98370.50;;;9.79;100.00
21779;BME280;11050;52.222;20.916;2024-02-23T08:15:54;98371.78;;;9.86;100.00
21779;BME280;11050;52.222;20.916;2024-02-23T08:18:20;98370.97;;;9.86;100.00
21779;BME280;11050;52.222;20.916;2024-02-23T08:20:48;98366.28;;;9.86;100.00
21779;BME280;11050;52.222;20.916;2024-02-23T08:23:14;98374.47;;;9.91;100.00
21779;BME280;11050;52.222;20.916;2024-02-23T08:25:40;98380.06;;;10.00;100.00
21779;BME280;11050;52.222;20.916;2024-02-23T08:28:06;98392.63;;;10.06;100.00
21779;BME280;11050;52.222;20.916;2024-02-23T08:30:33;98396.72;;;10.08;100.00
21779;BME280;11050;52.222;20.916;2024-02-23T08:32:58;98393.91;;;10.13;100.00
21779;BME280;11050;52.222;20.916;2024-02-23T08:35:25;98396.78;;;10.22;100.00
21779;BME280;11050;52.222;20.916;2024-02-23T08:37:51;98403.41;;;10.21;100.00
21779;BME280;11050;52.222;20.916;2024-02-23T08:40:17;98397.91;;;10.21;100.00
21779;BME280;11050;52.222;20.916;2024-02-23T08:42:43;98410.97;;;10.29;100.00
21779;BME280;11050;52.222;20.916;2024-02-23T08:45:09;98416.97;;;10.31;100.00
21779;BME280;11050;52.222;20.916;2024-02-23T08:47:39;98408.66;;;10.36;100.00
21779;BME280;11050;52.222;20.916;2024-02-23T08:50:06;98423.63;;;10.43;100.00
21779;BME280;11050;52.222;20.916;2024-02-23T08:52:32;98421.09;;;10.47;100.00
21779;BME280;11050;52.222;20.916;2024-02-23T08:54:58;98429.28;;;10.52;100.00
21779;BME280;11050;52.222;20.916;2024-02-23T08:57:23;98415.47;;;10.57;100.00
21779;BME280;11050;52.222;20.916;2024-02-23T08:59:49;98424.16;;;10.78;100.00
21779;BME280;11050;52.222;20.916;2024-02-23T09:02:15;98431.94;;;10.89;100.00
21779;BME280;11050;52.222;20.916;2024-02-23T09:04:41;98435.31;;;11.00;100.00
21779;BME280;11050;52.222;20.916;2024-02-23T09:07:07;98426.59;;;11.11;100.00
21779;BME280;11050;52.222;20.916;2024-02-23T09:09:32;98431.06;;;11.21;100.00
21779;BME280;11050;52.222;20.916;2024-02-23T09:11:58;98430.97;;;11.26;100.00
21779;BME280;11050;52.222;20.916;2024-02-23T09:14:24;98437.63;;;11.38;100.00
21779;BME280;11050;52.222;20.916;2024-02-23T09:16:51;98437.91;;;11.51;100.00
21779;BME280;11050;52.222;20.916;2024-02-23T09:19:18;98437.09;;;11.64;100.00
21779;BME280;11050;52.222;20.916;2024-02-23T09:21:44;98448.06;;;11.69;100.00
21779;BME280;11050;52.222;20.916;2024-02-23T09:24:10;98448.66;;;11.66;100.00
21779;BME280;11050;52.222;20.916;2024-02-23T09:26:36;98451.91;;;11.68;100.00
21779;BME280;11050;52.222;20.916;2024-02-23T09:29:01;98455.56;;;11.77;100.00
21779;BME280;11050;52.222;20.916;2024-02-23T09:31:27;98449.47;;;11.93;100.00
21779;BME280;11050;52.222;20.916;2024-02-23T09:33:57;98458.44;;;11.99;100.00
21779;BME280;11050;52.222;20.916;2024-02-23T09:36:23;98465.88;;;11.85;100.00
21779;BME280;11050;52.222;20.916;2024-02-23T09:38:50;98471.25;;;11.90;100.00
21779;BME280;11050;52.222;20.916;2024-02-23T09:41:25;98467.28;;;11.82;100.00
21779;BME280;11050;52.222;20.916;2024-02-23T09:43:51;98473.03;;;11.86;100.00
21779;BME280;11050;52.222;20.916;2024-02-23T09:46:18;98477.00;;;11.80;100.00
21779;BME280;11050;52.222;20.916;2024-02-23T09:48:45;98483.31;;;11.80;100.00
21779;BME280;11050;52.222;20.916;2024-02-23T09:51:14;98478.00;;;11.70;100.00
21779;BME280;11050;52.222;20.916;2024-02-23T09:53:41;98477.81;;;11.67;100.00
21779;BME280;11050;52.222;20.916;2024-02-23T09:56:09;98485.53;;;11.65;100.00
21779;BME280;11050;52.222;20.916;2024-02-23T09:58:41;98490.00;;;11.61;100.00
21779;BME280;11050;52.222;20.916;2024-02-23T10:01:07;98490.19;;;11.64;100.00
21779;BME280;11050;52.222;20.916;2024-02-23T10:03:37;98489.13;;;11.65;100.00
21779;BME280;11050;52.222;20.916;2024-02-23T10:06:04;98489.72;;;11.76;100.00
21779;BME280;11050;52.222;20.916;2024-02-23T10:08:30;98489.63;;;11.81;100.00
21779;BME280;11050;52.222;20.916;2024-02-23T10:10:56;98490.03;;;11.88;100.00
21779;BME280;11050;52.222;20.916;2024-02-23T10:13:23;98498.91;;;11.98;100.00
21779;BME280;11050;52.222;20.916;2024-02-23T10:15:51;98506.13;;;12.08;100.00
21779;BME280;11050;52.222;20.916;2024-02-23T10:18:17;98502.16;;;12.14;100.00
21779;BME280;11050;52.222;20.916;2024-02-23T10:20:43;98515.47;;;12.20;100.00
21779;BME280;11050;52.222;20.916;2024-02-23T10:23:09;98513.16;;;12.14;100.00
21779;BME280;11050;52.222;20.916;2024-02-23T10:25:38;98509.47;;;12.18;100.00
21779;BME280;11050;52.222;20.916;2024-02-23T10:28:06;98511.00;;;12.11;100.00
21779;BME280;11050;52.222;20.916;2024-02-23T10:30:33;98510.22;;;12.10;100.00
21779;BME280;11050;52.222;20.916;2024-02-23T10:32:59;98521.13;;;12.15;100.00
21779;BME280;11050;52.222;20.916;2024-02-23T10:35:25;98520.28;;;12.15;100.00
21779;BME280;11050;52.222;20.916;2024-02-23T10:37:54;98524.78;;;12.11;100.00
21779;BME280;11050;52.222;20.916;2024-02-23T10:40:21;98532.25;;;12.10;100.00
21779;BME280;11050;52.222;20.916;2024-02-23T10:42:51;98531.50;;;12.05;100.00
21779;BME280;11050;52.222;20.916;2024-02-23T10:45:21;98528.75;;;12.05;100.00
21779;BME280;11050;52.222;20.916;2024-02-23T10:47:50;98532.13;;;12.02;100.00
21779;BME280;11050;52.222;20.916;2024-02-23T10:50:18;98545.88;;;12.02;100.00
21779;BME280;11050;52.222;20.916;2024-02-23T10:52:45;98545.25;;;12.05;100.00
21779;BME280;11050;52.222;20.916;2024-02-23T10:55:15;98548.34;;;12.03;100.00
21779;BME280;11050;52.222;20.916;2024-02-23T10:57:40;98549.78;;;12.01;100.00
21779;BME280;11050;52.222;20.916;2024-02-23T11:00:08;98554.78;;;11.99;100.00
21779;BME280;11050;52.222;20.916;2024-02-23T11:02:49;98553.31;;;12.01;100.00
21779;BME280;11050;52.222;20.916;2024-02-23T11:05:16;98563.44;;;12.06;100.00
21779;BME280;11050;52.222;20.916;2024-02-23T11:07:42;98561.31;;;12.03;100.00
21779;BME280;11050;52.222;20.916;2024-02-23T11:10:08;98566.06;;;11.97;100.00
21779;BME280;11050;52.222;20.916;2024-02-23T11:12:35;98568.34;;;11.95;100.00
21779;BME280;11050;52.222;20.916;2024-02-23T11:15:02;98570.78;;;11.97;100.00
21779;BME280;11050;52.222;20.916;2024-02-23T11:17:31;98570.56;;;11.93;100.00
21779;BME280;11050;52.222;20.916;2024-02-23T11:19:58;98574.63;;;11.96;100.00
21779;BME280;11050;52.222;20.916;2024-02-23T11:22:32;98569.56;;;11.89;100.00
21779;BME280;11050;52.222;20.916;2024-02-23T11:25:05;98578.84;;;11.93;100.00
21779;BME280;11050;52.222;20.916;2024-02-23T11:27:33;98581.16;;;12.00;100.00
21779;BME280;11050;52.222;20.916;2024-02-23T11:30:08;98589.31;;;12.05;100.00
21779;BME280;11050;52.222;20.916;2024-02-23T11:32:46;98584.84;;;12.09;100.00
21779;BME280;11050;52.222;20.916;2024-02-23T11:35:15;98587.19;;;12.15;100.00
21779;BME280;11050;52.222;20.916;2024-02-23T11:38:03;98593.22;;;12.17;100.00
21779;BME280;11050;52.222;20.916;2024-02-23T11:40:31;98587.28;;;12.24;100.00
21779;BME280;11050;52.222;20.916;2024-02-23T11:42:59;98604.00;;;12.27;100.00
21779;BME280;11050;52.222;20.916;2024-02-23T11:45:29;98604.22;;;12.17;100.00
21779;BME280;11050;52.222;20.916;2024-02-23T11:47:56;98609.94;;;12.07;100.00
21779;BME280;11050;52.222;20.916;2024-02-23T11:50:22;98600.31;;;12.05;100.00
21779;BME280;11050;52.222;20.916;2024-02-23T11:52:47;98607.81;;;12.18;100.00
21779;BME280;11050;52.222;20.916;2024-02-23T11:55:21;98607.69;;;12.23;100.00
21779;BME280;11050;52.222;20.916;2024-02-23T11:57:48;98621.66;;;12.26;100.00
21779;BME280;11050;52.222;20.916;2024-02-23T12:00:15;98630.25;;;12.25;100.00
21779;BME280;11050;52.222;20.916;2024-02-23T12:02:40;98628.31;;;12.25;100.00
21779;BME280;11050;52.222;20.916;2024-02-23T12:05:07;98637.06;;;12.27;100.00
21779;BME280;11050;52.222;20.916;2024-02-23T12:07:33;98632.06;;;12.29;100.00
21779;BME280;11050;52.222;20.916;2024-02-23T12:10:00;98628.50;;;12.29;100.00
21779;BME280;11050;52.222;20.916;2024-02-23T12:12:26;98638.91;;;12.32;100.00
21779;BME280;11050;52.222;20.916;2024-02-23T12:14:52;98634.31;;;12.27;100.00
21779;BME280;11050;52.222;20.916;2024-02-23T12:17:18;98649.31;;;12.35;100.00
21779;BME280;11050;52.222;20.916;2024-02-23T12:19:44;98643.72;;;12.40;100.00
21779;BME280;11050;52.222;20.916;2024-02-23T12:22:13;98647.50;;;12.44;100.00
21779;BME280;11050;52.222;20.916;2024-02-23T12:24:41;98647.06;;;12.51;100.00
21779;BME280;11050;52.222;20.916;2024-02-23T12:27:07;98654.94;;;12.57;100.00
21779;BME280;11050;52.222;20.916;2024-02-23T12:29:33;98653.78;;;12.58;100.00
21779;BME280;11050;52.222;20.916;2024-02-23T12:32:08;98659.31;;;12.58;100.00
21779;BME280;11050;52.222;20.916;2024-02-23T12:34:34;98661.03;;;12.54;100.00
21779;BME280;11050;52.222;20.916;2024-02-23T12:37:02;98656.66;;;12.53;100.00
21779;BME280;11050;52.222;20.916;2024-02-23T12:39:29;98660.97;;;12.59;100.00
21779;BME280;11050;52.222;20.916;2024-02-23T12:41:55;98664.81;;;12.58;100.00
21779;BME280;11050;52.222;20.916;2024-02-23T12:44:22;98652.25;;;12.52;100.00
21779;BME280;11050;52.222;20.916;2024-02-23T12:46:48;98665.63;;;12.45;100.00